sensor_id;sensor_type;location;lat;lon;timestamp;P1;durP1;ratioP1;P2;durP2;ratioP2
18322;SDS011;9287;49.456;11.064;2022-09-09T00:02:13;1.60;;;0.90;;
18322;SDS011;9287;49.456;11.064;2022-09-09T00:04:44;2.33;;;0.90;;
18322;SDS011;9287;49.456;11.064;2022-09-09T00:07:14;1.13;;;1.00;;
18322;SDS011;9287;49.456;11.064;2022-09-09T00:09:46;2.97;;;0.93;;
18322;SDS011;9287;49.456;11.064;2022-09-09T00:12:16;2.27;;;1.10;;
18322;SDS011;9287;49.456;11.064;2022-09-09T00:14:49;1.53;;;1.00;;
18322;SDS011;9287;49.456;11.064;2022-09-09T00:17:21;1.33;;;0.90;;
18322;SDS011;9287;49.456;11.064;2022-09-09T00:19:54;3.47;;;0.97;;
18322;SDS011;9287;49.456;11.064;2022-09-09T00:22:24;1.77;;;0.80;;
18322;SDS011;9287;49.456;11.064;2022-09-09T00:24:53;1.43;;;0.90;;
18322;SDS011;9287;49.456;11.064;2022-09-09T00:27:23;1.20;;;0.77;;
18322;SDS011;9287;49.456;11.064;2022-09-09T00:29:56;0.93;;;0.63;;
18322;SDS011;9287;49.456;11.064;2022-09-09T00:32:27;1.10;;;0.90;;
18322;SDS011;9287;49.456;11.064;2022-09-09T00:34:55;3.00;;;0.90;;
18322;SDS011;9287;49.456;11.064;2022-09-09T00:37:24;2.33;;;0.90;;
18322;SDS011;9287;49.456;11.064;2022-09-09T00:39:53;1.23;;;0.80;;
18322;SDS011;9287;49.456;11.064;2022-09-09T00:42:24;1.27;;;0.80;;
18322;SDS011;9287;49.456;11.064;2022-09-09T00:44:52;1.20;;;0.90;;
18322;SDS011;9287;49.456;11.064;2022-09-09T00:53:02;1.17;;;0.70;;
18322;SDS011;9287;49.456;11.064;2022-09-09T00:55:34;1.13;;;0.70;;
18322;SDS011;9287;49.456;11.064;2022-09-09T00:58:07;0.80;;;0.77;;
18322;SDS011;9287;49.456;11.064;2022-09-09T01:00:35;0.70;;;0.70;;
18322;SDS011;9287;49.456;11.064;2022-09-09T01:03:10;0.97;;;0.70;;
18322;SDS011;9287;49.456;11.064;2022-09-09T01:05:44;0.97;;;0.80;;
18322;SDS011;9287;49.456;11.064;2022-09-09T01:08:17;3.40;;;0.70;;
18322;SDS011;9287;49.456;11.064;2022-09-09T01:10:49;2.30;;;0.73;;
18322;SDS011;9287;49.456;11.064;2022-09-09T01:13:19;0.70;;;0.70;;
18322;SDS011;9287;49.456;11.064;2022-09-09T01:15:49;1.27;;;0.80;;
18322;SDS011;9287;49.456;11.064;2022-09-09T01:18:27;3.30;;;0.80;;
18322;SDS011;9287;49.456;11.064;2022-09-09T01:20:57;0.80;;;0.80;;
18322;SDS011;9287;49.456;11.064;2022-09-09T01:23:35;1.67;;;0.90;;
18322;SDS011;9287;49.456;11.064;2022-09-09T01:26:11;1.97;;;0.80;;
18322;SDS011;9287;49.456;11.064;2022-09-09T01:28:40;1.90;;;0.70;;
18322;SDS011;9287;49.456;11.064;2022-09-09T01:31:10;0.90;;;0.60;;
18322;SDS011;9287;49.456;11.064;2022-09-09T01:33:38;0.97;;;0.70;;
18322;SDS011;9287;49.456;11.064;2022-09-09T01:36:09;0.80;;;0.80;;
18322;SDS011;9287;49.456;11.064;2022-09-09T01:38:39;1.60;;;0.90;;
18322;SDS011;9287;49.456;11.064;2022-09-09T01:41:07;1.73;;;0.83;;
18322;SDS011;9287;49.456;11.064;2022-09-09T01:43:35;0.63;;;0.60;;
18322;SDS011;9287;49.456;11.064;2022-09-09T01:46:03;1.27;;;0.70;;
18322;SDS011;9287;49.456;11.064;2022-09-09T01:48:31;1.03;;;0.80;;
18322;SDS011;9287;49.456;11.064;2022-09-09T01:50:59;1.20;;;0.80;;
18322;SDS011;9287;49.456;11.064;2022-09-09T01:53:26;1.57;;;0.73;;
18322;SDS011;9287;49.456;11.064;2022-09-09T01:56:00;0.87;;;0.73;;
18322;SDS011;9287;49.456;11.064;2022-09-09T01:58:32;1.40;;;0.90;;
18322;SDS011;9287;49.456;11.064;2022-09-09T02:01:04;2.07;;;0.93;;
18322;SDS011;9287;49.456;11.064;2022-09-09T02:03:33;1.43;;;0.70;;
18322;SDS011;9287;49.456;11.064;2022-09-09T02:06:05;0.83;;;0.70;;
18322;SDS011;9287;49.456;11.064;2022-09-09T02:08:40;2.37;;;0.90;;
18322;SDS011;9287;49.456;11.064;2022-09-09T02:11:11;1.80;;;0.93;;
18322;SDS011;9287;49.456;11.064;2022-09-09T02:13:40;2.27;;;0.90;;
18322;SDS011;9287;49.456;11.064;2022-09-09T02:16:10;1.00;;;0.80;;
18322;SDS011;9287;49.456;11.064;2022-09-09T02:18:40;1.03;;;0.80;;
18322;SDS011;9287;49.456;11.064;2022-09-09T02:21:08;0.93;;;0.63;;
18322;SDS011;9287;49.456;11.064;2022-09-09T02:23:37;0.90;;;0.70;;
18322;SDS011;9287;49.456;11.064;2022-09-09T02:26:06;2.07;;;0.80;;
18322;SDS011;9287;49.456;11.064;2022-09-09T02:28:34;0.70;;;0.70;;
18322;SDS011;9287;49.456;11.064;2022-09-09T02:31:04;1.63;;;0.90;;
18322;SDS011;9287;49.456;11.064;2022-09-09T02:33:35;1.27;;;0.80;;
18322;SDS011;9287;49.456;11.064;2022-09-09T02:36:04;2.13;;;0.80;;
18322;SDS011;9287;49.456;11.064;2022-09-09T02:38:34;2.17;;;0.83;;
18322;SDS011;9287;49.456;11.064;2022-09-09T02:41:03;2.40;;;1.03;;
18322;SDS011;9287;49.456;11.064;2022-09-09T02:43:31;2.00;;;0.70;;
18322;SDS011;9287;49.456;11.064;2022-09-09T02:46:01;2.73;;;0.80;;
18322;SDS011;9287;49.456;11.064;2022-09-09T02:48:31;4.30;;;0.90;;
18322;SDS011;9287;49.456;11.064;2022-09-09T02:51:05;0.77;;;0.70;;
18322;SDS011;9287;49.456;11.064;2022-09-09T02:53:35;2.10;;;0.77;;
18322;SDS011;9287;49.456;11.064;2022-09-09T02:56:04;0.90;;;0.73;;
18322;SDS011;9287;49.456;11.064;2022-09-09T02:58:34;2.50;;;0.90;;
18322;SDS011;9287;49.456;11.064;2022-09-09T03:01:02;1.43;;;0.80;;
18322;SDS011;9287;49.456;11.064;2022-09-09T03:03:29;2.23;;;0.80;;
18322;SDS011;9287;49.456;11.064;2022-09-09T03:05:57;2.07;;;0.80;;
18322;SDS011;9287;49.456;11.064;2022-09-09T03:08:26;0.80;;;0.80;;
18322;SDS011;9287;49.456;11.064;2022-09-09T03:10:54;0.70;;;0.60;;
18322;SDS011;9287;49.456;11.064;2022-09-09T03:13:22;2.40;;;0.70;;
18322;SDS011;9287;49.456;11.064;2022-09-09T03:15:49;2.90;;;0.70;;
18322;SDS011;9287;49.456;11.064;2022-09-09T03:18:17;3.03;;;0.80;;
18322;SDS011;9287;49.456;11.064;2022-09-09T03:20:45;2.13;;;0.67;;
18322;SDS011;9287;49.456;11.064;2022-09-09T03:23:14;2.53;;;0.87;;
18322;SDS011;9287;49.456;11.064;2022-09-09T03:25:47;1.40;;;0.90;;
18322;SDS011;9287;49.456;11.064;2022-09-09T03:28:15;1.83;;;0.87;;
18322;SDS011;9287;49.456;11.064;2022-09-09T03:30:43;1.00;;;0.77;;
18322;SDS011;9287;49.456;11.064;2022-09-09T03:33:10;0.60;;;0.60;;
18322;SDS011;9287;49.456;11.064;2022-09-09T03:35:38;0.73;;;0.70;;
18322;SDS011;9287;49.456;11.064;2022-09-09T03:38:07;1.67;;;0.80;;
18322;SDS011;9287;49.456;11.064;2022-09-09T03:40:35;1.50;;;0.80;;
18322;SDS011;9287;49.456;11.064;2022-09-09T03:43:04;1.70;;;0.80;;
18322;SDS011;9287;49.456;11.064;2022-09-09T03:45:31;2.30;;;0.70;;
18322;SDS011;9287;49.456;11.064;2022-09-09T03:47:59;1.80;;;0.97;;
18322;SDS011;9287;49.456;11.064;2022-09-09T03:50:26;1.40;;;0.80;;
18322;SDS011;9287;49.456;11.064;2022-09-09T03:52:54;2.03;;;0.90;;
18322;SDS011;9287;49.456;11.064;2022-09-09T03:55:21;4.10;;;1.10;;
18322;SDS011;9287;49.456;11.064;2022-09-09T03:57:49;1.20;;;1.07;;
18322;SDS011;9287;49.456;11.064;2022-09-09T04:00:18;0.90;;;0.80;;
18322;SDS011;9287;49.456;11.064;2022-09-09T04:02:45;3.20;;;0.80;;
18322;SDS011;9287;49.456;11.064;2022-09-09T04:05:13;1.30;;;0.90;;
18322;SDS011;9287;49.456;11.064;2022-09-09T04:07:41;2.63;;;0.90;;
18322;SDS011;9287;49.456;11.064;2022-09-09T04:10:09;1.90;;;0.90;;
18322;SDS011;9287;49.456;11.064;2022-09-09T04:12:36;1.30;;;0.90;;
18322;SDS011;9287;49.456;11.064;2022-09-09T04:15:04;1.67;;;1.07;;
18322;SDS011;9287;49.456;11.064;2022-09-09T04:17:33;1.40;;;0.80;;
18322;SDS011;9287;49.456;11.064;2022-09-09T04:20:02;3.43;;;0.97;;
18322;SDS011;9287;49.456;11.064;2022-09-09T04:22:30;1.97;;;1.07;;
18322;SDS011;9287;49.456;11.064;2022-09-09T04:24:58;2.30;;;0.90;;
18322;SDS011;9287;49.456;11.064;2022-09-09T04:27:25;1.27;;;0.80;;
18322;SDS011;9287;49.456;11.064;2022-09-09T04:29:52;2.70;;;1.00;;
18322;SDS011;9287;49.456;11.064;2022-09-09T04:32:22;1.77;;;1.00;;
18322;SDS011;9287;49.456;11.064;2022-09-09T04:34:54;2.70;;;0.97;;
18322;SDS011;9287;49.456;11.064;2022-09-09T04:37:21;1.80;;;1.00;;
18322;SDS011;9287;49.456;11.064;2022-09-09T04:39:49;1.83;;;0.80;;
18322;SDS011;9287;49.456;11.064;2022-09-09T04:42:16;1.30;;;0.90;;
18322;SDS011;9287;49.456;11.064;2022-09-09T04:44:45;3.00;;;1.60;;
18322;SDS011;9287;49.456;11.064;2022-09-09T04:47:13;1.00;;;0.90;;
18322;SDS011;9287;49.456;11.064;2022-09-09T04:49:41;2.63;;;0.90;;
18322;SDS011;9287;49.456;11.064;2022-09-09T04:52:09;1.50;;;0.90;;
18322;SDS011;9287;49.456;11.064;2022-09-09T04:54:37;1.63;;;1.10;;
18322;SDS011;9287;49.456;11.064;2022-09-09T04:57:05;2.57;;;1.57;;
18322;SDS011;9287;49.456;11.064;2022-09-09T04:59:33;4.10;;;3.30;;
18322;SDS011;9287;49.456;11.064;2022-09-09T05:02:00;2.77;;;1.10;;
18322;SDS011;9287;49.456;11.064;2022-09-09T05:04:29;1.87;;;1.10;;
18322;SDS011;9287;49.456;11.064;2022-09-09T05:06:57;2.33;;;1.37;;
18322;SDS011;9287;49.456;11.064;2022-09-09T05:09:26;3.73;;;1.00;;
18322;SDS011;9287;49.456;11.064;2022-09-09T05:11:53;1.30;;;1.10;;
18322;SDS011;9287;49.456;11.064;2022-09-09T05:14:21;3.33;;;1.00;;
18322;SDS011;9287;49.456;11.064;2022-09-09T05:16:48;2.20;;;1.10;;
18322;SDS011;9287;49.456;11.064;2022-09-09T05:19:16;5.80;;;4.13;;
18322;SDS011;9287;49.456;11.064;2022-09-09T05:21:45;3.40;;;1.00;;
18322;SDS011;9287;49.456;11.064;2022-09-09T05:24:12;1.33;;;0.90;;
18322;SDS011;9287;49.456;11.064;2022-09-09T05:26:42;2.40;;;1.00;;
18322;SDS011;9287;49.456;11.064;2022-09-09T05:29:09;1.57;;;1.03;;
18322;SDS011;9287;49.456;11.064;2022-09-09T05:31:37;3.57;;;1.33;;
18322;SDS011;9287;49.456;11.064;2022-09-09T05:34:05;1.83;;;1.27;;
18322;SDS011;9287;49.456;11.064;2022-09-09T05:36:32;5.50;;;1.30;;
18322;SDS011;9287;49.456;11.064;2022-09-09T05:39:00;4.60;;;1.50;;
18322;SDS011;9287;49.456;11.064;2022-09-09T05:41:27;2.87;;;1.30;;
18322;SDS011;9287;49.456;11.064;2022-09-09T05:43:56;1.70;;;1.10;;
18322;SDS011;9287;49.456;11.064;2022-09-09T05:46:25;3.30;;;1.30;;
18322;SDS011;9287;49.456;11.064;2022-09-09T05:48:52;4.80;;;1.70;;
18322;SDS011;9287;49.456;11.064;2022-09-09T05:51:21;8.63;;;1.13;;
18322;SDS011;9287;49.456;11.064;2022-09-09T05:53:49;3.87;;;1.20;;
18322;SDS011;9287;49.456;11.064;2022-09-09T05:56:18;2.57;;;1.00;;
18322;SDS011;9287;49.456;11.064;2022-09-09T05:58:45;2.83;;;1.10;;
18322;SDS011;9287;49.456;11.064;2022-09-09T06:01:17;1.67;;;1.07;;
18322;SDS011;9287;49.456;11.064;2022-09-09T06:03:46;4.20;;;1.10;;
18322;SDS011;9287;49.456;11.064;2022-09-09T06:06:14;2.23;;;1.00;;
18322;SDS011;9287;49.456;11.064;2022-09-09T06:08:43;5.00;;;1.30;;
18322;SDS011;9287;49.456;11.064;2022-09-09T06:11:12;4.93;;;0.97;;
18322;SDS011;9287;49.456;11.064;2022-09-09T06:13:41;1.77;;;0.80;;
18322;SDS011;9287;49.456;11.064;2022-09-09T06:16:09;4.03;;;1.10;;
18322;SDS011;9287;49.456;11.064;2022-09-09T06:18:39;1.70;;;1.20;;
18322;SDS011;9287;49.456;11.064;2022-09-09T06:21:08;3.90;;;1.43;;
18322;SDS011;9287;49.456;11.064;2022-09-09T06:23:36;3.57;;;1.30;;
18322;SDS011;9287;49.456;11.064;2022-09-09T06:26:04;2.77;;;1.40;;
18322;SDS011;9287;49.456;11.064;2022-09-09T06:28:32;6.10;;;1.50;;
18322;SDS011;9287;49.456;11.064;2022-09-09T06:31:01;2.07;;;1.33;;
18322;SDS011;9287;49.456;11.064;2022-09-09T06:33:30;4.23;;;1.40;;
18322;SDS011;9287;49.456;11.064;2022-09-09T06:35:59;4.67;;;1.80;;
18322;SDS011;9287;49.456;11.064;2022-09-09T06:38:27;3.57;;;1.40;;
18322;SDS011;9287;49.456;11.064;2022-09-09T06:40:55;3.57;;;1.50;;
18322;SDS011;9287;49.456;11.064;2022-09-09T06:43:26;2.53;;;1.30;;
18322;SDS011;9287;49.456;11.064;2022-09-09T06:45:55;4.67;;;1.20;;
18322;SDS011;9287;49.456;11.064;2022-09-09T06:48:25;5.33;;;1.70;;
18322;SDS011;9287;49.456;11.064;2022-09-09T06:51:01;5.07;;;1.40;;
18322;SDS011;9287;49.456;11.064;2022-09-09T06:53:29;1.93;;;0.90;;
18322;SDS011;9287;49.456;11.064;2022-09-09T06:55:57;2.53;;;1.20;;
18322;SDS011;9287;49.456;11.064;2022-09-09T06:58:24;4.65;;;1.27;;
18322;SDS011;9287;49.456;11.064;2022-09-09T07:00:52;3.72;;;1.02;;
18322;SDS011;9287;49.456;11.064;2022-09-09T07:03:20;1.95;;;0.95;;
18322;SDS011;9287;49.456;11.064;2022-09-09T07:05:53;1.48;;;0.80;;
18322;SDS011;9287;49.456;11.064;2022-09-09T07:08:22;4.15;;;0.80;;
18322;SDS011;9287;49.456;11.064;2022-09-09T07:10:52;1.55;;;0.93;;
18322;SDS011;9287;49.456;11.064;2022-09-09T07:13:23;2.38;;;0.85;;
18322;SDS011;9287;49.456;11.064;2022-09-09T07:15:51;2.38;;;0.90;;
18322;SDS011;9287;49.456;11.064;2022-09-09T07:18:19;4.10;;;1.00;;
18322;SDS011;9287;49.456;11.064;2022-09-09T07:20:52;3.67;;;1.00;;
18322;SDS011;9287;49.456;11.064;2022-09-09T07:23:20;3.17;;;0.90;;
18322;SDS011;9287;49.456;11.064;2022-09-09T07:25:48;8.50;;;1.00;;
18322;SDS011;9287;49.456;11.064;2022-09-09T07:28:16;2.35;;;0.80;;
18322;SDS011;9287;49.456;11.064;2022-09-09T07:30:43;5.50;;;1.17;;
18322;SDS011;9287;49.456;11.064;2022-09-09T07:33:11;4.55;;;1.10;;
18322;SDS011;9287;49.456;11.064;2022-09-09T07:35:38;1.75;;;0.77;;
18322;SDS011;9287;49.456;11.064;2022-09-09T07:38:06;3.63;;;0.90;;
18322;SDS011;9287;49.456;11.064;2022-09-09T07:40:35;3.08;;;0.80;;
18322;SDS011;9287;49.456;11.064;2022-09-09T07:43:09;3.05;;;0.80;;
18322;SDS011;9287;49.456;11.064;2022-09-09T07:45:42;4.40;;;1.20;;
18322;SDS011;9287;49.456;11.064;2022-09-09T07:48:09;7.03;;;1.20;;
18322;SDS011;9287;49.456;11.064;2022-09-09T07:50:37;2.05;;;0.88;;
18322;SDS011;9287;49.456;11.064;2022-09-09T07:53:05;1.88;;;1.00;;
18322;SDS011;9287;49.456;11.064;2022-09-09T07:55:33;4.90;;;1.05;;
18322;SDS011;9287;49.456;11.064;2022-09-09T07:58:01;3.75;;;1.00;;
18322;SDS011;9287;49.456;11.064;2022-09-09T08:00:29;2.83;;;0.80;;
18322;SDS011;9287;49.456;11.064;2022-09-09T08:02:59;3.95;;;0.88;;
18322;SDS011;9287;49.456;11.064;2022-09-09T08:05:28;1.10;;;0.63;;
18322;SDS011;9287;49.456;11.064;2022-09-09T08:07:55;2.45;;;0.70;;
18322;SDS011;9287;49.456;11.064;2022-09-09T08:10:23;1.52;;;0.70;;
18322;SDS011;9287;49.456;11.064;2022-09-09T08:12:51;2.92;;;0.75;;
18322;SDS011;9287;49.456;11.064;2022-09-09T08:15:40;2.83;;;0.80;;
18322;SDS011;9287;49.456;11.064;2022-09-09T08:18:09;1.75;;;0.70;;
18322;SDS011;9287;49.456;11.064;2022-09-09T08:20:37;3.15;;;0.80;;
18322;SDS011;9287;49.456;11.064;2022-09-09T08:23:05;1.38;;;0.70;;
18322;SDS011;9287;49.456;11.064;2022-09-09T08:25:33;0.77;;;0.70;;
18322;SDS011;9287;49.456;11.064;2022-09-09T08:28:01;2.55;;;0.70;;
18322;SDS011;9287;49.456;11.064;2022-09-09T08:30:29;0.80;;;0.40;;
18322;SDS011;9287;49.456;11.064;2022-09-09T08:32:58;0.88;;;0.57;;
18322;SDS011;9287;49.456;11.064;2022-09-09T08:35:26;0.93;;;0.60;;
18322;SDS011;9287;49.456;11.064;2022-09-09T08:37:59;2.33;;;0.50;;
18322;SDS011;9287;49.456;11.064;2022-09-09T08:40:28;0.98;;;0.60;;
18322;SDS011;9287;49.456;11.064;2022-09-09T08:42:59;1.17;;;0.60;;
18322;SDS011;9287;49.456;11.064;2022-09-09T08:45:30;1.30;;;0.52;;
18322;SDS011;9287;49.456;11.064;2022-09-09T08:48:10;1.17;;;0.40;;
18322;SDS011;9287;49.456;11.064;2022-09-09T08:50:41;1.73;;;0.60;;
18322;SDS011;9287;49.456;11.064;2022-09-09T08:53:11;1.23;;;0.45;;
18322;SDS011;9287;49.456;11.064;2022-09-09T08:55:41;0.80;;;0.50;;
18322;SDS011;9287;49.456;11.064;2022-09-09T08:58:12;1.48;;;0.50;;
18322;SDS011;9287;49.456;11.064;2022-09-09T09:00:43;0.85;;;0.40;;
18322;SDS011;9287;49.456;11.064;2022-09-09T09:03:15;0.43;;;0.30;;
18322;SDS011;9287;49.456;11.064;2022-09-09T09:05:47;1.30;;;0.40;;
18322;SDS011;9287;49.456;11.064;2022-09-09T09:08:20;0.50;;;0.30;;
18322;SDS011;9287;49.456;11.064;2022-09-09T09:10:53;1.05;;;0.40;;
18322;SDS011;9287;49.456;11.064;2022-09-09T09:13:24;1.00;;;0.40;;
18322;SDS011;9287;49.456;11.064;2022-09-09T09:15:55;1.58;;;0.35;;
18322;SDS011;9287;49.456;11.064;2022-09-09T09:18:25;1.17;;;0.40;;
18322;SDS011;9287;49.456;11.064;2022-09-09T09:20:55;0.50;;;0.30;;
18322;SDS011;9287;49.456;11.064;2022-09-09T09:23:26;0.52;;;0.30;;
18322;SDS011;9287;49.456;11.064;2022-09-09T09:25:58;0.73;;;0.20;;
18322;SDS011;9287;49.456;11.064;2022-09-09T09:28:29;1.13;;;0.30;;
18322;SDS011;9287;49.456;11.064;2022-09-09T09:30:57;0.50;;;0.20;;
18322;SDS011;9287;49.456;11.064;2022-09-09T09:33:29;1.38;;;0.20;;
18322;SDS011;9287;49.456;11.064;2022-09-09T09:35:59;0.45;;;0.28;;
18322;SDS011;9287;49.456;11.064;2022-09-09T09:38:28;0.70;;;0.22;;
18322;SDS011;9287;49.456;11.064;2022-09-09T09:41:16;2.60;;;0.40;;
18322;SDS011;9287;49.456;11.064;2022-09-09T09:43:52;0.57;;;0.20;;
18322;SDS011;9287;49.456;11.064;2022-09-09T09:46:21;0.40;;;0.25;;
18322;SDS011;9287;49.456;11.064;2022-09-09T09:48:59;1.77;;;0.30;;
18322;SDS011;9287;49.456;11.064;2022-09-09T09:51:27;0.52;;;0.30;;
18322;SDS011;9287;49.456;11.064;2022-09-09T09:54:03;0.90;;;0.25;;
18322;SDS011;9287;49.456;11.064;2022-09-09T09:56:35;0.35;;;0.20;;
18322;SDS011;9287;49.456;11.064;2022-09-09T09:59:03;0.82;;;0.30;;
18322;SDS011;9287;49.456;11.064;2022-09-09T10:01:48;1.55;;;0.30;;
18322;SDS011;9287;49.456;11.064;2022-09-09T10:04:19;0.50;;;0.30;;
18322;SDS011;9287;49.456;11.064;2022-09-09T10:06:49;0.85;;;0.30;;
18322;SDS011;9287;49.456;11.064;2022-09-09T10:09:20;0.50;;;0.32;;
18322;SDS011;9287;49.456;11.064;2022-09-09T10:11:49;1.02;;;0.30;;
18322;SDS011;9287;49.456;11.064;2022-09-09T10:14:20;0.60;;;0.30;;
18322;SDS011;9287;49.456;11.064;2022-09-09T10:16:55;1.08;;;0.40;;
18322;SDS011;9287;49.456;11.064;2022-09-09T10:19:30;1.35;;;0.40;;
18322;SDS011;9287;49.456;11.064;2022-09-09T10:22:04;0.82;;;0.30;;
18322;SDS011;9287;49.456;11.064;2022-09-09T10:24:38;0.90;;;0.30;;
18322;SDS011;9287;49.456;11.064;2022-09-09T10:27:11;1.73;;;0.40;;
18322;SDS011;9287;49.456;11.064;2022-09-09T10:29:56;1.10;;;0.38;;
18322;SDS011;9287;49.456;11.064;2022-09-09T10:32:33;1.27;;;0.30;;
18322;SDS011;9287;49.456;11.064;2022-09-09T10:35:09;1.05;;;0.20;;
18322;SDS011;9287;49.456;11.064;2022-09-09T10:37:41;0.57;;;0.30;;
18322;SDS011;9287;49.456;11.064;2022-09-09T10:40:18;1.50;;;0.30;;
18322;SDS011;9287;49.456;11.064;2022-09-09T10:42:46;0.85;;;0.32;;
18322;SDS011;9287;49.456;11.064;2022-09-09T10:45:17;1.95;;;0.38;;
18322;SDS011;9287;49.456;11.064;2022-09-09T10:47:59;1.35;;;0.35;;
18322;SDS011;9287;49.456;11.064;2022-09-09T10:50:33;0.60;;;0.30;;
18322;SDS011;9287;49.456;11.064;2022-09-09T10:53:26;0.95;;;0.40;;
18322;SDS011;9287;49.456;11.064;2022-09-09T10:55:56;4.13;;;0.40;;
18322;SDS011;9287;49.456;11.064;2022-09-09T10:58:27;0.95;;;0.30;;
18322;SDS011;9287;49.456;11.064;2022-09-09T11:00:59;1.65;;;0.40;;
18322;SDS011;9287;49.456;11.064;2022-09-09T11:03:29;1.27;;;0.40;;
18322;SDS011;9287;49.456;11.064;2022-09-09T11:05:59;0.85;;;0.40;;
18322;SDS011;9287;49.456;11.064;2022-09-09T11:08:29;0.43;;;0.30;;
18322;SDS011;9287;49.456;11.064;2022-09-09T11:10:58;0.47;;;0.30;;
18322;SDS011;9287;49.456;11.064;2022-09-09T11:13:29;1.20;;;0.30;;
18322;SDS011;9287;49.456;11.064;2022-09-09T11:16:00;1.98;;;0.40;;
18322;SDS011;9287;49.456;11.064;2022-09-09T11:18:29;2.63;;;0.40;;
18322;SDS011;9287;49.456;11.064;2022-09-09T11:21:00;1.00;;;0.30;;
18322;SDS011;9287;49.456;11.064;2022-09-09T11:23:31;0.95;;;0.47;;
18322;SDS011;9287;49.456;11.064;2022-09-09T11:26:06;1.05;;;0.32;;
18322;SDS011;9287;49.456;11.064;2022-09-09T11:28:41;1.88;;;0.40;;
18322;SDS011;9287;49.456;11.064;2022-09-09T11:31:17;3.10;;;0.50;;
18322;SDS011;9287;49.456;11.064;2022-09-09T11:33:51;1.73;;;0.38;;
18322;SDS011;9287;49.456;11.064;2022-09-09T11:36:35;1.23;;;0.40;;
18322;SDS011;9287;49.456;11.064;2022-09-09T11:39:10;1.42;;;0.40;;
18322;SDS011;9287;49.456;11.064;2022-09-09T11:41:40;1.40;;;0.50;;
18322;SDS011;9287;49.456;11.064;2022-09-09T11:44:10;1.00;;;0.30;;
18322;SDS011;9287;49.456;11.064;2022-09-09T11:46:38;1.05;;;0.40;;
18322;SDS011;9287;49.456;11.064;2022-09-09T11:49:06;1.10;;;0.30;;
18322;SDS011;9287;49.456;11.064;2022-09-09T11:51:52;1.13;;;0.30;;
18322;SDS011;9287;49.456;11.064;2022-09-09T11:54:28;2.53;;;0.50;;
18322;SDS011;9287;49.456;11.064;2022-09-09T11:56:56;1.27;;;0.32;;
18322;SDS011;9287;49.456;11.064;2022-09-09T11:59:25;1.20;;;0.38;;
18322;SDS011;9287;49.456;11.064;2022-09-09T12:01:54;2.08;;;0.30;;
18322;SDS011;9287;49.456;11.064;2022-09-09T12:04:30;0.88;;;0.30;;
18322;SDS011;9287;49.456;11.064;2022-09-09T12:07:02;1.33;;;0.30;;
18322;SDS011;9287;49.456;11.064;2022-09-09T12:09:36;0.55;;;0.40;;
18322;SDS011;9287;49.456;11.064;2022-09-09T12:12:17;2.17;;;0.40;;
18322;SDS011;9287;49.456;11.064;2022-09-09T12:14:54;4.82;;;2.35;;
18322;SDS011;9287;49.456;11.064;2022-09-09T12:17:23;1.27;;;0.43;;
18322;SDS011;9287;49.456;11.064;2022-09-09T12:19:59;2.85;;;0.50;;
18322;SDS011;9287;49.456;11.064;2022-09-09T12:22:32;0.60;;;0.25;;
18322;SDS011;9287;49.456;11.064;2022-09-09T12:25:05;1.23;;;0.30;;
18322;SDS011;9287;49.456;11.064;2022-09-09T12:27:40;1.17;;;0.30;;
18322;SDS011;9287;49.456;11.064;2022-09-09T12:30:10;1.00;;;0.30;;
18322;SDS011;9287;49.456;11.064;2022-09-09T12:32:39;0.65;;;0.20;;
18322;SDS011;9287;49.456;11.064;2022-09-09T12:35:09;1.33;;;0.30;;
18322;SDS011;9287;49.456;11.064;2022-09-09T12:37:40;0.90;;;0.20;;
18322;SDS011;9287;49.456;11.064;2022-09-09T12:40:18;0.65;;;0.20;;
18322;SDS011;9287;49.456;11.064;2022-09-09T12:42:46;0.70;;;0.30;;
18322;SDS011;9287;49.456;11.064;2022-09-09T12:45:15;1.80;;;0.25;;
18322;SDS011;9287;49.456;11.064;2022-09-09T12:47:44;0.40;;;0.30;;
18322;SDS011;9287;49.456;11.064;2022-09-09T12:50:15;1.33;;;0.40;;
18322;SDS011;9287;49.456;11.064;2022-09-09T12:52:45;1.45;;;0.40;;
18322;SDS011;9287;49.456;11.064;2022-09-09T12:55:16;1.98;;;0.40;;
18322;SDS011;9287;49.456;11.064;2022-09-09T12:57:45;2.30;;;0.35;;
18322;SDS011;9287;49.456;11.064;2022-09-09T13:00:14;1.20;;;0.40;;
18322;SDS011;9287;49.456;11.064;2022-09-09T13:02:50;1.52;;;0.47;;
18322;SDS011;9287;49.456;11.064;2022-09-09T13:05:19;5.40;;;0.43;;
18322;SDS011;9287;49.456;11.064;2022-09-09T13:07:48;4.40;;;0.40;;
18322;SDS011;9287;49.456;11.064;2022-09-09T13:10:20;2.58;;;0.50;;
18322;SDS011;9287;49.456;11.064;2022-09-09T13:13:02;3.22;;;0.30;;
18322;SDS011;9287;49.456;11.064;2022-09-09T13:15:31;2.53;;;0.30;;
18322;SDS011;9287;49.456;11.064;2022-09-09T13:17:59;2.08;;;0.40;;
18322;SDS011;9287;49.456;11.064;2022-09-09T13:20:28;1.65;;;0.40;;
18322;SDS011;9287;49.456;11.064;2022-09-09T13:22:58;1.45;;;0.25;;
18322;SDS011;9287;49.456;11.064;2022-09-09T13:25:26;1.02;;;0.40;;
18322;SDS011;9287;49.456;11.064;2022-09-09T13:27:56;1.08;;;0.35;;
18322;SDS011;9287;49.456;11.064;2022-09-09T13:30:24;0.47;;;0.30;;
18322;SDS011;9287;49.456;11.064;2022-09-09T13:33:03;0.60;;;0.30;;
18322;SDS011;9287;49.456;11.064;2022-09-09T13:35:31;0.95;;;0.32;;
18322;SDS011;9287;49.456;11.064;2022-09-09T13:38:05;0.63;;;0.28;;
18322;SDS011;9287;49.456;11.064;2022-09-09T13:40:33;0.70;;;0.30;;
18322;SDS011;9287;49.456;11.064;2022-09-09T13:43:03;0.38;;;0.20;;
18322;SDS011;9287;49.456;11.064;2022-09-09T13:45:31;1.02;;;0.30;;
18322;SDS011;9287;49.456;11.064;2022-09-09T13:48:08;1.60;;;0.30;;
18322;SDS011;9287;49.456;11.064;2022-09-09T13:50:36;1.45;;;0.25;;
18322;SDS011;9287;49.456;11.064;2022-09-09T13:53:07;1.23;;;0.30;;
18322;SDS011;9287;49.456;11.064;2022-09-09T13:55:35;0.20;;;0.20;;
18322;SDS011;9287;49.456;11.064;2022-09-09T13:58:03;0.40;;;0.20;;
18322;SDS011;9287;49.456;11.064;2022-09-09T14:00:33;0.85;;;0.20;;
18322;SDS011;9287;49.456;11.064;2022-09-09T14:03:00;0.50;;;0.17;;
18322;SDS011;9287;49.456;11.064;2022-09-09T14:05:29;1.48;;;0.22;;
18322;SDS011;9287;49.456;11.064;2022-09-09T14:07:57;1.10;;;0.20;;
18322;SDS011;9287;49.456;11.064;2022-09-09T14:10:28;0.40;;;0.30;;
18322;SDS011;9287;49.456;11.064;2022-09-09T14:12:55;1.80;;;0.30;;
18322;SDS011;9287;49.456;11.064;2022-09-09T14:15:23;1.17;;;0.30;;
18322;SDS011;9287;49.456;11.064;2022-09-09T14:17:51;0.60;;;0.20;;
18322;SDS011;9287;49.456;11.064;2022-09-09T14:20:18;1.08;;;0.47;;
18322;SDS011;9287;49.456;11.064;2022-09-09T14:22:46;3.25;;;1.10;;
18322;SDS011;9287;49.456;11.064;2022-09-09T14:25:14;1.10;;;0.70;;
18322;SDS011;9287;49.456;11.064;2022-09-09T14:27:43;0.77;;;0.47;;
18322;SDS011;9287;49.456;11.064;2022-09-09T14:30:12;4.03;;;0.98;;
18322;SDS011;9287;49.456;11.064;2022-09-09T14:32:39;1.35;;;0.35;;
18322;SDS011;9287;49.456;11.064;2022-09-09T14:35:07;2.20;;;0.40;;
18322;SDS011;9287;49.456;11.064;2022-09-09T14:37:35;1.70;;;0.30;;
18322;SDS011;9287;49.456;11.064;2022-09-09T14:40:03;2.42;;;0.35;;
18322;SDS011;9287;49.456;11.064;2022-09-09T14:42:31;5.15;;;0.88;;
18322;SDS011;9287;49.456;11.064;2022-09-09T14:45:00;1.70;;;0.50;;
18322;SDS011;9287;49.456;11.064;2022-09-09T14:47:28;3.17;;;0.50;;
18322;SDS011;9287;49.456;11.064;2022-09-09T14:49:56;1.02;;;0.30;;
18322;SDS011;9287;49.456;11.064;2022-09-09T14:52:24;1.48;;;0.50;;
18322;SDS011;9287;49.456;11.064;2022-09-09T14:54:54;1.45;;;0.45;;
18322;SDS011;9287;49.456;11.064;2022-09-09T14:57:22;0.65;;;0.40;;
18322;SDS011;9287;49.456;11.064;2022-09-09T14:59:49;1.05;;;0.50;;
18322;SDS011;9287;49.456;11.064;2022-09-09T15:02:18;1.15;;;0.50;;
18322;SDS011;9287;49.456;11.064;2022-09-09T15:04:46;1.42;;;0.40;;
18322;SDS011;9287;49.456;11.064;2022-09-09T15:07:16;1.73;;;0.65;;
18322;SDS011;9287;49.456;11.064;2022-09-09T15:09:45;1.30;;;0.60;;
18322;SDS011;9287;49.456;11.064;2022-09-09T15:12:14;0.77;;;0.60;;